sensor_id;sensor_type;location;lat;lon;timestamp;P1;durP1;ratioP1;P2;durP2;ratioP2
45354;SDS011;31091;48.758;9.150;2022-12-07T00:02:37;9.23;;;5.05;;
45354;SDS011;31091;48.758;9.150;2022-12-07T00:05:22;8.13;;;4.75;;
45354;SDS011;31091;48.758;9.150;2022-12-07T00:08:08;9.93;;;5.25;;
45354;SDS011;31091;48.758;9.150;2022-12-07T00:10:53;7.95;;;4.53;;
45354;SDS011;31091;48.758;9.150;2022-12-07T00:13:38;8.00;;;4.82;;
45354;SDS011;31091;48.758;9.150;2022-12-07T00:16:25;9.68;;;4.80;;
45354;SDS011;31091;48.758;9.150;2022-12-07T00:19:12;8.63;;;5.95;;
45354;SDS011;31091;48.758;9.150;2022-12-07T00:21:57;8.55;;;5.18;;
45354;SDS011;31091;48.758;9.150;2022-12-07T00:24:42;9.18;;;4.95;;
45354;SDS011;31091;48.758;9.150;2022-12-07T00:27:27;8.98;;;4.75;;
45354;SDS011;31091;48.758;9.150;2022-12-07T00:30:13;10.57;;;5.38;;
45354;SDS011;31091;48.758;9.150;2022-12-07T00:32:58;9.70;;;5.68;;
45354;SDS011;31091;48.758;9.150;2022-12-07T00:35:43;9.32;;;5.57;;
45354;SDS011;31091;48.758;9.150;2022-12-07T00:38:29;8.73;;;4.53;;
45354;SDS011;31091;48.758;9.150;2022-12-07T00:41:16;10.45;;;5.68;;
45354;SDS011;31091;48.758;9.150;2022-12-07T00:44:01;9.00;;;5.40;;
45354;SDS011;31091;48.758;9.150;2022-12-07T00:46:46;10.18;;;5.18;;
45354;SDS011;31091;48.758;9.150;2022-12-07T00:49:32;9.05;;;5.45;;
45354;SDS011;31091;48.758;9.150;2022-12-07T00:52:17;9.80;;;5.75;;
45354;SDS011;31091;48.758;9.150;2022-12-07T00:55:02;10.25;;;6.15;;
45354;SDS011;31091;48.758;9.150;2022-12-07T00:57:47;9.70;;;6.38;;
45354;SDS011;31091;48.758;9.150;2022-12-07T01:00:33;9.65;;;5.70;;
45354;SDS011;31091;48.758;9.150;2022-12-07T01:03:19;11.15;;;6.55;;
45354;SDS011;31091;48.758;9.150;2022-12-07T01:06:05;13.93;;;6.57;;
45354;SDS011;31091;48.758;9.150;2022-12-07T01:08:50;8.55;;;5.93;;
45354;SDS011;31091;48.758;9.150;2022-12-07T01:11:35;10.35;;;6.05;;
45354;SDS011;31091;48.758;9.150;2022-12-07T01:14:21;10.18;;;6.38;;
45354;SDS011;31091;48.758;9.150;2022-12-07T01:17:06;11.95;;;6.93;;
45354;SDS011;31091;48.758;9.150;2022-12-07T01:19:51;10.70;;;7.05;;
45354;SDS011;31091;48.758;9.150;2022-12-07T01:22:40;12.60;;;6.75;;
45354;SDS011;31091;48.758;9.150;2022-12-07T01:25:25;10.97;;;7.00;;
45354;SDS011;31091;48.758;9.150;2022-12-07T01:28:10;16.75;;;6.88;;
45354;SDS011;31091;48.758;9.150;2022-12-07T01:30:57;9.10;;;5.90;;
45354;SDS011;31091;48.758;9.150;2022-12-07T01:33:50;11.68;;;6.95;;
45354;SDS011;31091;48.758;9.150;2022-12-07T01:36:36;9.50;;;6.00;;
45354;SDS011;31091;48.758;9.150;2022-12-07T01:39:21;9.57;;;5.75;;
45354;SDS011;31091;48.758;9.150;2022-12-07T01:42:09;13.60;;;6.18;;
45354;SDS011;31091;48.758;9.150;2022-12-07T01:47:58;11.27;;;6.00;;
45354;SDS011;31091;48.758;9.150;2022-12-07T01:50:43;10.35;;;5.80;;
45354;SDS011;31091;48.758;9.150;2022-12-07T01:53:29;10.35;;;6.32;;
45354;SDS011;31091;48.758;9.150;2022-12-07T01:56:17;11.10;;;6.47;;
45354;SDS011;31091;48.758;9.150;2022-12-07T01:59:03;10.18;;;6.13;;
45354;SDS011;31091;48.758;9.150;2022-12-07T02:01:49;10.13;;;5.88;;
45354;SDS011;31091;48.758;9.150;2022-12-07T02:04:34;10.15;;;5.97;;
45354;SDS011;31091;48.758;9.150;2022-12-07T02:07:20;12.48;;;5.70;;
45354;SDS011;31091;48.758;9.150;2022-12-07T02:10:16;11.23;;;6.22;;
45354;SDS011;31091;48.758;9.150;2022-12-07T02:13:02;11.82;;;6.80;;
45354;SDS011;31091;48.758;9.150;2022-12-07T02:27:38;9.15;;;5.97;;
45354;SDS011;31091;48.758;9.150;2022-12-07T02:30:26;11.00;;;6.35;;
45354;SDS011;31091;48.758;9.150;2022-12-07T02:33:17;12.95;;;6.60;;
45354;SDS011;31091;48.758;9.150;2022-12-07T02:38:54;11.63;;;6.40;;
45354;SDS011;31091;48.758;9.150;2022-12-07T02:41:43;9.85;;;5.63;;
45354;SDS011;31091;48.758;9.150;2022-12-07T02:44:29;10.75;;;6.85;;
45354;SDS011;31091;48.758;9.150;2022-12-07T02:47:16;12.10;;;6.03;;
45354;SDS011;31091;48.758;9.150;2022-12-07T02:50:04;12.35;;;6.10;;
45354;SDS011;31091;48.758;9.150;2022-12-07T02:52:49;11.55;;;6.32;;
45354;SDS011;31091;48.758;9.150;2022-12-07T02:55:37;10.93;;;6.43;;
45354;SDS011;31091;48.758;9.150;2022-12-07T03:01:30;10.90;;;6.15;;
45354;SDS011;31091;48.758;9.150;2022-12-07T03:10:09;9.57;;;5.22;;
45354;SDS011;31091;48.758;9.150;2022-12-07T03:15:46;10.48;;;5.65;;
45354;SDS011;31091;48.758;9.150;2022-12-07T03:18:38;10.95;;;6.00;;
45354;SDS011;31091;48.758;9.150;2022-12-07T03:21:27;10.68;;;6.03;;
45354;SDS011;31091;48.758;9.150;2022-12-07T03:24:16;8.48;;;5.35;;
45354;SDS011;31091;48.758;9.150;2022-12-07T03:27:13;8.25;;;4.60;;
45354;SDS011;31091;48.758;9.150;2022-12-07T03:30:04;9.38;;;4.88;;
45354;SDS011;31091;48.758;9.150;2022-12-07T03:35:43;12.43;;;6.80;;
45354;SDS011;31091;48.758;9.150;2022-12-07T03:38:32;8.50;;;5.30;;
45354;SDS011;31091;48.758;9.150;2022-12-07T03:41:28;9.95;;;5.22;;
45354;SDS011;31091;48.758;9.150;2022-12-07T03:44:14;10.50;;;5.63;;
45354;SDS011;31091;48.758;9.150;2022-12-07T03:47:22;9.40;;;6.10;;
45354;SDS011;31091;48.758;9.150;2022-12-07T03:53:18;13.05;;;6.88;;
45354;SDS011;31091;48.758;9.150;2022-12-07T03:56:04;11.43;;;5.70;;
45354;SDS011;31091;48.758;9.150;2022-12-07T03:58:50;10.63;;;5.47;;
45354;SDS011;31091;48.758;9.150;2022-12-07T04:01:36;9.57;;;5.63;;
45354;SDS011;31091;48.758;9.150;2022-12-07T04:04:23;10.80;;;5.32;;
45354;SDS011;31091;48.758;9.150;2022-12-07T04:07:09;10.23;;;5.13;;
45354;SDS011;31091;48.758;9.150;2022-12-07T04:09:54;12.07;;;6.00;;
45354;SDS011;31091;48.758;9.150;2022-12-07T04:12:42;13.13;;;5.40;;
45354;SDS011;31091;48.758;9.150;2022-12-07T04:15:28;9.02;;;5.25;;
45354;SDS011;31091;48.758;9.150;2022-12-07T04:18:13;10.38;;;6.22;;
45354;SDS011;31091;48.758;9.150;2022-12-07T04:20:58;12.00;;;6.40;;
45354;SDS011;31091;48.758;9.150;2022-12-07T04:23:43;11.77;;;5.53;;
45354;SDS011;31091;48.758;9.150;2022-12-07T04:26:28;11.88;;;6.53;;
45354;SDS011;31091;48.758;9.150;2022-12-07T04:29:14;12.70;;;5.95;;
45354;SDS011;31091;48.758;9.150;2022-12-07T04:31:59;11.45;;;5.93;;
45354;SDS011;31091;48.758;9.150;2022-12-07T04:34:45;11.70;;;6.47;;
45354;SDS011;31091;48.758;9.150;2022-12-07T04:37:30;11.23;;;5.90;;
45354;SDS011;31091;48.758;9.150;2022-12-07T04:40:15;10.18;;;6.47;;
45354;SDS011;31091;48.758;9.150;2022-12-07T04:43:00;11.00;;;5.93;;
45354;SDS011;31091;48.758;9.150;2022-12-07T04:45:46;9.18;;;5.20;;
45354;SDS011;31091;48.758;9.150;2022-12-07T04:48:32;10.32;;;6.20;;
45354;SDS011;31091;48.758;9.150;2022-12-07T04:51:21;9.13;;;5.18;;
45354;SDS011;31091;48.758;9.150;2022-12-07T04:54:08;9.50;;;5.68;;
45354;SDS011;31091;48.758;9.150;2022-12-07T04:56:53;9.60;;;5.10;;
45354;SDS011;31091;48.758;9.150;2022-12-07T04:59:38;11.35;;;6.10;;
45354;SDS011;31091;48.758;9.150;2022-12-07T05:02:23;9.70;;;5.15;;
45354;SDS011;31091;48.758;9.150;2022-12-07T05:05:08;8.15;;;4.38;;
45354;SDS011;31091;48.758;9.150;2022-12-07T05:07:54;9.50;;;4.55;;
45354;SDS011;31091;48.758;9.150;2022-12-07T05:10:39;8.15;;;4.05;;
45354;SDS011;31091;48.758;9.150;2022-12-07T05:13:24;7.20;;;4.10;;
45354;SDS011;31091;48.758;9.150;2022-12-07T05:16:09;8.18;;;5.05;;
45354;SDS011;31091;48.758;9.150;2022-12-07T05:18:55;8.18;;;4.93;;
45354;SDS011;31091;48.758;9.150;2022-12-07T05:21:40;7.53;;;4.38;;
45354;SDS011;31091;48.758;9.150;2022-12-07T05:24:25;6.30;;;4.32;;
45354;SDS011;31091;48.758;9.150;2022-12-07T05:27:10;9.02;;;4.57;;
45354;SDS011;31091;48.758;9.150;2022-12-07T05:29:55;10.18;;;4.45;;
45354;SDS011;31091;48.758;9.150;2022-12-07T05:32:41;8.48;;;4.00;;
45354;SDS011;31091;48.758;9.150;2022-12-07T05:35:26;6.90;;;3.85;;
45354;SDS011;31091;48.758;9.150;2022-12-07T05:38:11;7.18;;;3.92;;
45354;SDS011;31091;48.758;9.150;2022-12-07T05:40:59;7.85;;;4.32;;
45354;SDS011;31091;48.758;9.150;2022-12-07T05:43:46;8.05;;;4.30;;
45354;SDS011;31091;48.758;9.150;2022-12-07T05:46:31;7.97;;;4.55;;
45354;SDS011;31091;48.758;9.150;2022-12-07T05:49:16;7.45;;;3.65;;
45354;SDS011;31091;48.758;9.150;2022-12-07T05:52:02;8.05;;;3.70;;
45354;SDS011;31091;48.758;9.150;2022-12-07T05:54:47;9.30;;;4.50;;
45354;SDS011;31091;48.758;9.150;2022-12-07T05:57:32;6.55;;;3.97;;
45354;SDS011;31091;48.758;9.150;2022-12-07T06:00:18;8.18;;;4.30;;
45354;SDS011;31091;48.758;9.150;2022-12-07T06:03:03;7.38;;;3.92;;
45354;SDS011;31091;48.758;9.150;2022-12-07T06:05:48;8.38;;;3.92;;
45354;SDS011;31091;48.758;9.150;2022-12-07T06:08:34;8.68;;;4.47;;
45354;SDS011;31091;48.758;9.150;2022-12-07T06:11:19;6.97;;;3.78;;
45354;SDS011;31091;48.758;9.150;2022-12-07T06:14:23;8.57;;;4.50;;
45354;SDS011;31091;48.758;9.150;2022-12-07T06:17:08;7.18;;;3.47;;
45354;SDS011;31091;48.758;9.150;2022-12-07T06:19:54;6.80;;;3.38;;
45354;SDS011;31091;48.758;9.150;2022-12-07T06:22:39;8.70;;;4.47;;
45354;SDS011;31091;48.758;9.150;2022-12-07T06:25:24;6.93;;;4.13;;
45354;SDS011;31091;48.758;9.150;2022-12-07T06:28:09;9.05;;;3.90;;
45354;SDS011;31091;48.758;9.150;2022-12-07T06:30:58;6.97;;;3.90;;
45354;SDS011;31091;48.758;9.150;2022-12-07T06:33:44;9.55;;;3.85;;
45354;SDS011;31091;48.758;9.150;2022-12-07T06:36:29;9.05;;;4.50;;
45354;SDS011;31091;48.758;9.150;2022-12-07T06:39:14;10.35;;;4.30;;
45354;SDS011;31091;48.758;9.150;2022-12-07T06:42:00;9.90;;;4.80;;
45354;SDS011;31091;48.758;9.150;2022-12-07T06:44:45;7.97;;;4.47;;
45354;SDS011;31091;48.758;9.150;2022-12-07T06:47:30;7.85;;;3.92;;
45354;SDS011;31091;48.758;9.150;2022-12-07T06:50:15;8.43;;;4.15;;
45354;SDS011;31091;48.758;9.150;2022-12-07T06:53:00;6.72;;;3.92;;
45354;SDS011;31091;48.758;9.150;2022-12-07T06:55:46;9.77;;;3.85;;
45354;SDS011;31091;48.758;9.150;2022-12-07T06:58:31;8.82;;;4.68;;
45354;SDS011;31091;48.758;9.150;2022-12-07T07:01:17;8.68;;;4.40;;
45354;SDS011;31091;48.758;9.150;2022-12-07T07:04:02;8.25;;;4.18;;
45354;SDS011;31091;48.758;9.150;2022-12-07T07:06:48;8.23;;;4.20;;
45354;SDS011;31091;48.758;9.150;2022-12-07T07:09:33;6.65;;;4.10;;
45354;SDS011;31091;48.758;9.150;2022-12-07T07:12:18;7.45;;;4.15;;
45354;SDS011;31091;48.758;9.150;2022-12-07T07:15:04;9.00;;;4.53;;
45354;SDS011;31091;48.758;9.150;2022-12-07T07:17:49;6.85;;;4.30;;
45354;SDS011;31091;48.758;9.150;2022-12-07T07:20:34;8.73;;;4.85;;
45354;SDS011;31091;48.758;9.150;2022-12-07T07:23:20;10.48;;;4.35;;
45354;SDS011;31091;48.758;9.150;2022-12-07T07:26:06;8.20;;;4.60;;
45354;SDS011;31091;48.758;9.150;2022-12-07T07:28:51;7.60;;;4.53;;
45354;SDS011;31091;48.758;9.150;2022-12-07T07:31:36;8.13;;;4.15;;
45354;SDS011;31091;48.758;9.150;2022-12-07T07:34:22;9.10;;;4.30;;
45354;SDS011;31091;48.758;9.150;2022-12-07T07:37:07;8.93;;;4.28;;
45354;SDS011;31091;48.758;9.150;2022-12-07T07:39:52;8.82;;;4.78;;
45354;SDS011;31091;48.758;9.150;2022-12-07T07:42:37;9.00;;;4.75;;
45354;SDS011;31091;48.758;9.150;2022-12-07T07:45:23;7.47;;;4.18;;
45354;SDS011;31091;48.758;9.150;2022-12-07T07:48:09;10.90;;;5.47;;
45354;SDS011;31091;48.758;9.150;2022-12-07T07:50:54;9.75;;;5.13;;
45354;SDS011;31091;48.758;9.150;2022-12-07T07:53:39;8.77;;;4.45;;
45354;SDS011;31091;48.758;9.150;2022-12-07T07:56:25;10.30;;;5.53;;
45354;SDS011;31091;48.758;9.150;2022-12-07T07:59:10;9.73;;;4.72;;
45354;SDS011;31091;48.758;9.150;2022-12-07T08:01:55;9.60;;;4.53;;
45354;SDS011;31091;48.758;9.150;2022-12-07T08:04:40;9.73;;;4.85;;
45354;SDS011;31091;48.758;9.150;2022-12-07T08:07:26;10.70;;;4.90;;
45354;SDS011;31091;48.758;9.150;2022-12-07T08:10:12;8.77;;;4.80;;
45354;SDS011;31091;48.758;9.150;2022-12-07T08:12:58;9.65;;;4.40;;
45354;SDS011;31091;48.758;9.150;2022-12-07T08:15:55;8.38;;;4.53;;
45354;SDS011;31091;48.758;9.150;2022-12-07T08:18:41;10.05;;;4.57;;
45354;SDS011;31091;48.758;9.150;2022-12-07T08:21:26;11.38;;;5.68;;
45354;SDS011;31091;48.758;9.150;2022-12-07T08:24:12;8.35;;;4.68;;
45354;SDS011;31091;48.758;9.150;2022-12-07T08:26:57;10.50;;;4.25;;
45354;SDS011;31091;48.758;9.150;2022-12-07T08:29:42;8.63;;;4.40;;
45354;SDS011;31091;48.758;9.150;2022-12-07T08:32:27;9.38;;;4.68;;
45354;SDS011;31091;48.758;9.150;2022-12-07T08:35:13;9.05;;;4.43;;
45354;SDS011;31091;48.758;9.150;2022-12-07T08:37:58;9.70;;;5.10;;
45354;SDS011;31091;48.758;9.150;2022-12-07T08:40:43;11.07;;;5.28;;
45354;SDS011;31091;48.758;9.150;2022-12-07T08:43:29;7.95;;;4.72;;
45354;SDS011;31091;48.758;9.150;2022-12-07T08:46:25;8.55;;;4.35;;
45354;SDS011;31091;48.758;9.150;2022-12-07T08:49:22;8.88;;;4.93;;
45354;SDS011;31091;48.758;9.150;2022-12-07T08:52:08;10.20;;;3.97;;
45354;SDS011;31091;48.758;9.150;2022-12-07T08:54:53;8.63;;;4.38;;
45354;SDS011;31091;48.758;9.150;2022-12-07T08:57:38;9.38;;;4.28;;
45354;SDS011;31091;48.758;9.150;2022-12-07T09:00:24;7.80;;;4.60;;
45354;SDS011;31091;48.758;9.150;2022-12-07T09:03:10;11.32;;;5.45;;
45354;SDS011;31091;48.758;9.150;2022-12-07T09:05:56;8.32;;;4.05;;
45354;SDS011;31091;48.758;9.150;2022-12-07T09:08:42;8.27;;;4.70;;
45354;SDS011;31091;48.758;9.150;2022-12-07T09:11:28;8.32;;;4.05;;
45354;SDS011;31091;48.758;9.150;2022-12-07T09:14:14;6.80;;;3.75;;
45354;SDS011;31091;48.758;9.150;2022-12-07T09:17:10;9.13;;;4.32;;
45354;SDS011;31091;48.758;9.150;2022-12-07T09:19:55;5.90;;;3.50;;
45354;SDS011;31091;48.758;9.150;2022-12-07T09:22:41;7.78;;;3.85;;
45354;SDS011;31091;48.758;9.150;2022-12-07T09:25:26;6.90;;;3.65;;
45354;SDS011;31091;48.758;9.150;2022-12-07T09:28:11;9.45;;;3.40;;
45354;SDS011;31091;48.758;9.150;2022-12-07T09:30:56;7.55;;;3.53;;
45354;SDS011;31091;48.758;9.150;2022-12-07T09:33:42;8.02;;;4.03;;
45354;SDS011;31091;48.758;9.150;2022-12-07T09:36:27;7.28;;;4.07;;
45354;SDS011;31091;48.758;9.150;2022-12-07T09:39:13;8.43;;;3.90;;
45354;SDS011;31091;48.758;9.150;2022-12-07T09:41:58;6.55;;;3.50;;
45354;SDS011;31091;48.758;9.150;2022-12-07T09:44:44;6.25;;;3.53;;
45354;SDS011;31091;48.758;9.150;2022-12-07T09:47:29;9.07;;;3.92;;
45354;SDS011;31091;48.758;9.150;2022-12-07T09:50:16;6.30;;;3.42;;
45354;SDS011;31091;48.758;9.150;2022-12-07T09:53:07;6.88;;;3.20;;
45354;SDS011;31091;48.758;9.150;2022-12-07T09:55:52;6.15;;;3.95;;
45354;SDS011;31091;48.758;9.150;2022-12-07T09:58:38;12.52;;;4.05;;
45354;SDS011;31091;48.758;9.150;2022-12-07T10:01:23;6.55;;;3.30;;
45354;SDS011;31091;48.758;9.150;2022-12-07T10:04:10;9.00;;;4.60;;
45354;SDS011;31091;48.758;9.150;2022-12-07T10:06:57;9.88;;;3.80;;
45354;SDS011;31091;48.758;9.150;2022-12-07T10:09:43;9.00;;;3.83;;
45354;SDS011;31091;48.758;9.150;2022-12-07T10:12:28;4.93;;;2.65;;
45354;SDS011;31091;48.758;9.150;2022-12-07T10:15:13;6.03;;;2.95;;
45354;SDS011;31091;48.758;9.150;2022-12-07T10:17:59;7.60;;;3.30;;
45354;SDS011;31091;48.758;9.150;2022-12-07T10:20:46;7.60;;;2.75;;
45354;SDS011;31091;48.758;9.150;2022-12-07T10:23:31;6.82;;;3.55;;
45354;SDS011;31091;48.758;9.150;2022-12-07T10:26:36;3.88;;;2.20;;
45354;SDS011;31091;48.758;9.150;2022-12-07T10:38:07;6.88;;;2.55;;
45354;SDS011;31091;48.758;9.150;2022-12-07T10:41:06;7.53;;;3.33;;
45354;SDS011;31091;48.758;9.150;2022-12-07T10:43:53;4.78;;;2.72;;
45354;SDS011;31091;48.758;9.150;2022-12-07T10:46:46;6.20;;;2.75;;
45354;SDS011;31091;48.758;9.150;2022-12-07T10:55:16;5.88;;;2.60;;
45354;SDS011;31091;48.758;9.150;2022-12-07T11:18:34;4.75;;;2.58;;
45354;SDS011;31091;48.758;9.150;2022-12-07T11:21:58;5.03;;;2.72;;
45354;SDS011;31091;48.758;9.150;2022-12-07T11:24:50;5.97;;;2.35;;
45354;SDS011;31091;48.758;9.150;2022-12-07T11:27:41;4.32;;;2.50;;
45354;SDS011;31091;48.758;9.150;2022-12-07T11:30:50;4.43;;;2.47;;
45354;SDS011;31091;48.758;9.150;2022-12-07T11:33:42;4.63;;;2.20;;
45354;SDS011;31091;48.758;9.150;2022-12-07T11:39:26;2.72;;;1.77;;
45354;SDS011;31091;48.758;9.150;2022-12-07T11:42:14;4.05;;;2.13;;
45354;SDS011;31091;48.758;9.150;2022-12-07T11:45:13;3.78;;;2.20;;
45354;SDS011;31091;48.758;9.150;2022-12-07T11:48:01;2.33;;;1.73;;
45354;SDS011;31091;48.758;9.150;2022-12-07T11:50:53;3.75;;;1.90;;
45354;SDS011;31091;48.758;9.150;2022-12-07T11:53:40;6.75;;;2.03;;
45354;SDS011;31091;48.758;9.150;2022-12-07T11:56:27;2.58;;;1.83;;
45354;SDS011;31091;48.758;9.150;2022-12-07T11:59:13;3.55;;;2.00;;
45354;SDS011;31091;48.758;9.150;2022-12-07T12:02:07;3.22;;;1.80;;
45354;SDS011;31091;48.758;9.150;2022-12-07T12:05:14;3.85;;;2.17;;
45354;SDS011;31091;48.758;9.150;2022-12-07T12:08:09;4.82;;;2.35;;
45354;SDS011;31091;48.758;9.150;2022-12-07T12:14:02;2.25;;;1.52;;
45354;SDS011;31091;48.758;9.150;2022-12-07T12:17:00;3.67;;;2.17;;
45354;SDS011;31091;48.758;9.150;2022-12-07T12:22:45;5.18;;;2.60;;
45354;SDS011;31091;48.758;9.150;2022-12-07T12:25:36;2.33;;;1.73;;
45354;SDS011;31091;48.758;9.150;2022-12-07T12:28:29;3.85;;;2.15;;
45354;SDS011;31091;48.758;9.150;2022-12-07T12:43:00;6.93;;;4.10;;
45354;SDS011;31091;48.758;9.150;2022-12-07T12:45:45;6.90;;;3.90;;
45354;SDS011;31091;48.758;9.150;2022-12-07T12:48:35;5.53;;;3.08;;
45354;SDS011;31091;48.758;9.150;2022-12-07T12:51:37;5.20;;;2.42;;
45354;SDS011;31091;48.758;9.150;2022-12-07T12:54:25;7.22;;;3.28;;
45354;SDS011;31091;48.758;9.150;2022-12-07T12:57:19;4.90;;;3.17;;
45354;SDS011;31091;48.758;9.150;2022-12-07T13:03:01;4.55;;;2.85;;
45354;SDS011;31091;48.758;9.150;2022-12-07T13:05:47;5.90;;;3.38;;
45354;SDS011;31091;48.758;9.150;2022-12-07T13:08:32;4.78;;;3.03;;
45354;SDS011;31091;48.758;9.150;2022-12-07T13:11:20;4.57;;;2.92;;
45354;SDS011;31091;48.758;9.150;2022-12-07T13:23:23;6.75;;;2.70;;
45354;SDS011;31091;48.758;9.150;2022-12-07T13:26:19;4.10;;;2.53;;
45354;SDS011;31091;48.758;9.150;2022-12-07T13:29:12;6.10;;;3.28;;
45354;SDS011;31091;48.758;9.150;2022-12-07T13:31:58;4.82;;;2.47;;
45354;SDS011;31091;48.758;9.150;2022-12-07T13:34:43;3.50;;;2.10;;
45354;SDS011;31091;48.758;9.150;2022-12-07T13:37:30;4.30;;;2.55;;
45354;SDS011;31091;48.758;9.150;2022-12-07T13:40:18;3.97;;;2.60;;
45354;SDS011;31091;48.758;9.150;2022-12-07T13:43:04;6.57;;;2.40;;
45354;SDS011;31091;48.758;9.150;2022-12-07T13:45:58;6.10;;;2.28;;
45354;SDS011;31091;48.758;9.150;2022-12-07T13:48:47;3.40;;;2.20;;
45354;SDS011;31091;48.758;9.150;2022-12-07T13:51:34;4.28;;;2.80;;
45354;SDS011;31091;48.758;9.150;2022-12-07T13:54:19;5.80;;;2.85;;
45354;SDS011;31091;48.758;9.150;2022-12-07T13:57:06;3.63;;;2.35;;
45354;SDS011;31091;48.758;9.150;2022-12-07T13:59:51;3.05;;;1.95;;
45354;SDS011;31091;48.758;9.150;2022-12-07T14:02:53;3.90;;;2.05;;
45354;SDS011;31091;48.758;9.150;2022-12-07T14:05:42;3.33;;;2.22;;
45354;SDS011;31091;48.758;9.150;2022-12-07T14:08:29;4.17;;;2.43;;
45354;SDS011;31091;48.758;9.150;2022-12-07T14:11:18;6.03;;;2.83;;
45354;SDS011;31091;48.758;9.150;2022-12-07T14:14:05;4.38;;;2.65;;
45354;SDS011;31091;48.758;9.150;2022-12-07T14:17:01;4.43;;;2.47;;
45354;SDS011;31091;48.758;9.150;2022-12-07T14:19:48;3.33;;;2.13;;
45354;SDS011;31091;48.758;9.150;2022-12-07T14:22:35;6.13;;;2.42;;
45354;SDS011;31091;48.758;9.150;2022-12-07T14:25:22;5.38;;;2.35;;
45354;SDS011;31091;48.758;9.150;2022-12-07T14:28:24;4.35;;;2.33;;
45354;SDS011;31091;48.758;9.150;2022-12-07T14:31:11;2.97;;;1.80;;
45354;SDS011;31091;48.758;9.150;2022-12-07T14:34:00;4.93;;;2.38;;
45354;SDS011;31091;48.758;9.150;2022-12-07T14:36:45;4.45;;;2.50;;
45354;SDS011;31091;48.758;9.150;2022-12-07T14:39:30;7.28;;;3.63;;
45354;SDS011;31091;48.758;9.150;2022-12-07T14:42:15;5.82;;;2.90;;
45354;SDS011;31091;48.758;9.150;2022-12-07T14:45:01;8.50;;;4.10;;
45354;SDS011;31091;48.758;9.150;2022-12-07T14:47:46;9.10;;;3.97;;
45354;SDS011;31091;48.758;9.150;2022-12-07T14:50:33;6.13;;;3.38;;
45354;SDS011;31091;48.758;9.150;2022-12-07T14:53:21;8.43;;;3.50;;
45354;SDS011;31091;48.758;9.150;2022-12-07T14:56:09;8.00;;;3.40;;
45354;SDS011;31091;48.758;9.150;2022-12-07T14:58:54;6.32;;;3.35;;
45354;SDS011;31091;48.758;9.150;2022-12-07T15:01:39;4.88;;;3.35;;
45354;SDS011;31091;48.758;9.150;2022-12-07T15:04:25;5.32;;;3.67;;
45354;SDS011;31091;48.758;9.150;2022-12-07T15:07:13;7.15;;;3.33;;
45354;SDS011;31091;48.758;9.150;2022-12-07T15:09:59;5.95;;;3.92;;
45354;SDS011;31091;48.758;9.150;2022-12-07T15:12:44;5.88;;;3.47;;
45354;SDS011;31091;48.758;9.150;2022-12-07T15:15:30;6.25;;;3.65;;
45354;SDS011;31091;48.758;9.150;2022-12-07T15:18:15;6.45;;;3.65;;
45354;SDS011;31091;48.758;9.150;2022-12-07T15:21:00;5.80;;;3.45;;
45354;SDS011;31091;48.758;9.150;2022-12-07T15:23:46;7.15;;;4.00;;
45354;SDS011;31091;48.758;9.150;2022-12-07T15:26:31;8.00;;;3.97;;
45354;SDS011;31091;48.758;9.150;2022-12-07T15:29:17;5.65;;;3.65;;
45354;SDS011;31091;48.758;9.150;2022-12-07T15:32:02;6.57;;;3.80;;
45354;SDS011;31091;48.758;9.150;2022-12-07T15:34:47;7.93;;;3.85;;
45354;SDS011;31091;48.758;9.150;2022-12-07T15:37:33;11.30;;;4.20;;
45354;SDS011;31091;48.758;9.150;2022-12-07T15:40:18;6.90;;;3.60;;
45354;SDS011;31091;48.758;9.150;2022-12-07T15:43:03;7.15;;;3.67;;
45354;SDS011;31091;48.758;9.150;2022-12-07T15:45:49;4.75;;;2.88;;
45354;SDS011;31091;48.758;9.150;2022-12-07T15:48:34;7.20;;;3.47;;
45354;SDS011;31091;48.758;9.150;2022-12-07T15:51:19;6.95;;;3.53;;
45354;SDS011;31091;48.758;9.150;2022-12-07T15:54:05;5.38;;;3.10;;
45354;SDS011;31091;48.758;9.150;2022-12-07T15:56:50;5.43;;;3.33;;
45354;SDS011;31091;48.758;9.150;2022-12-07T15:59:35;7.13;;;3.40;;
45354;SDS011;31091;48.758;9.150;2022-12-07T16:02:21;8.45;;;4.70;;
45354;SDS011;31091;48.758;9.150;2022-12-07T16:05:07;8.15;;;4.07;;
45354;SDS011;31091;48.758;9.150;2022-12-07T16:07:52;8.13;;;3.80;;
45354;SDS011;31091;48.758;9.150;2022-12-07T16:10:38;7.93;;;4.25;;
45354;SDS011;31091;48.758;9.150;2022-12-07T16:13:23;7.53;;;4.22;;
45354;SDS011;31091;48.758;9.150;2022-12-07T16:16:10;6.85;;;3.88;;
45354;SDS011;31091;48.758;9.150;2022-12-07T16:18:57;8.48;;;4.20;;
45354;SDS011;31091;48.758;9.150;2022-12-07T16:21:42;7.85;;;4.82;;
45354;SDS011;31091;48.758;9.150;2022-12-07T16:24:27;10.43;;;5.20;;
45354;SDS011;31091;48.758;9.150;2022-12-07T16:27:12;11.23;;;5.40;;
45354;SDS011;31091;48.758;9.150;2022-12-07T16:29:58;9.50;;;5.05;;
45354;SDS011;31091;48.758;9.150;2022-12-07T16:32:43;10.73;;;5.65;;
45354;SDS011;31091;48.758;9.150;2022-12-07T16:35:28;11.52;;;6.05;;
45354;SDS011;31091;48.758;9.150;2022-12-07T16:38:13;10.65;;;5.75;;
45354;SDS011;31091;48.758;9.150;2022-12-07T16:40:58;11.70;;;6.07;;
45354;SDS011;31091;48.758;9.150;2022-12-07T16:43:44;13.10;;;6.32;;
45354;SDS011;31091;48.758;9.150;2022-12-07T16:46:29;12.60;;;5.97;;
45354;SDS011;31091;48.758;9.150;2022-12-07T16:49:16;11.48;;;6.20;;
45354;SDS011;31091;48.758;9.150;2022-12-07T16:52:01;11.15;;;6.35;;
45354;SDS011;31091;48.758;9.150;2022-12-07T16:54:49;13.23;;;6.32;;
45354;SDS011;31091;48.758;9.150;2022-12-07T16:57:35;12.07;;;6.47;;
45354;SDS011;31091;48.758;9.150;2022-12-07T17:00:20;14.23;;;7.40;;
45354;SDS011;31091;48.758;9.150;2022-12-07T17:03:06;12.13;;;5.93;;
45354;SDS011;31091;48.758;9.150;2022-12-07T17:05:51;12.80;;;6.10;;
45354;SDS011;31091;48.758;9.150;2022-12-07T17:08:36;11.13;;;6.50;;
45354;SDS011;31091;48.758;9.150;2022-12-07T17:11:22;13.70;;;6.43;;
45354;SDS011;31091;48.758;9.150;2022-12-07T17:14:08;15.20;;;7.95;;
45354;SDS011;31091;48.758;9.150;2022-12-07T17:17:12;12.13;;;6.30;;
45354;SDS011;31091;48.758;9.150;2022-12-07T17:19:59;10.98;;;6.22;;
45354;SDS011;31091;48.758;9.150;2022-12-07T17:22:45;13.85;;;7.25;;
45354;SDS011;31091;48.758;9.150;2022-12-07T17:25:30;11.90;;;6.95;;
45354;SDS011;31091;48.758;9.150;2022-12-07T17:28:15;12.30;;;6.43;;
45354;SDS011;31091;48.758;9.150;2022-12-07T17:31:01;14.40;;;6.20;;
45354;SDS011;31091;48.758;9.150;2022-12-07T17:33:49;12.80;;;7.22;;
45354;SDS011;31091;48.758;9.150;2022-12-07T17:36:34;11.85;;;5.95;;
45354;SDS011;31091;48.758;9.150;2022-12-07T17:39:20;11.48;;;5.82;;
45354;SDS011;31091;48.758;9.150;2022-12-07T17:42:06;12.23;;;7.38;;
45354;SDS011;31091;48.758;9.150;2022-12-07T17:45:11;11.02;;;6.18;;
45354;SDS011;31091;48.758;9.150;2022-12-07T17:47:56;14.98;;;6.53;;
45354;SDS011;31091;48.758;9.150;2022-12-07T17:50:41;12.57;;;5.70;;
45354;SDS011;31091;48.758;9.150;2022-12-07T17:53:49;11.73;;;5.78;;
45354;SDS011;31091;48.758;9.150;2022-12-07T17:56:35;11.32;;;5.38;;
45354;SDS011;31091;48.758;9.150;2022-12-07T17:59:20;10.82;;;6.32;;
45354;SDS011;31091;48.758;9.150;2022-12-07T18:02:05;13.30;;;6.78;;
45354;SDS011;31091;48.758;9.150;2022-12-07T18:04:51;10.65;;;5.78;;
45354;SDS011;31091;48.758;9.150;2022-12-07T18:07:37;10.38;;;5.68;;
45354;SDS011;31091;48.758;9.150;2022-12-07T18:10:22;11.60;;;6.22;;
45354;SDS011;31091;48.758;9.150;2022-12-07T18:13:07;12.60;;;6.40;;
45354;SDS011;31091;48.758;9.150;2022-12-07T18:16:23;12.68;;;6.15;;
45354;SDS011;31091;48.758;9.150;2022-12-07T18:19:09;11.82;;;6.43;;
45354;SDS011;31091;48.758;9.150;2022-12-07T18:21:57;10.52;;;5.18;;
45354;SDS011;31091;48.758;9.150;2022-12-07T18:24:42;10.25;;;4.95;;
45354;SDS011;31091;48.758;9.150;2022-12-07T18:27:27;10.82;;;5.95;;